createdAt,value
2022-11-09T00:04:17.411Z,64.25
2022-11-09T00:09:14.493Z,64.19
2022-11-09T00:14:17.299Z,64.32
2022-11-09T00:19:15.155Z,63.99
2022-11-09T00:24:12.446Z,64.19
2022-11-09T00:29:09.856Z,63.90
2022-11-09T00:34:06.966Z,63.88
2022-11-09T00:39:05.341Z,63.50
2022-11-09T00:44:03.344Z,63.26
2022-11-09T00:49:00.635Z,63.25
2022-11-09T00:53:58.002Z,63.29
2022-11-09T00:58:56.233Z,63.32
2022-11-09T01:03:53.867Z,63.11
2022-11-09T01:08:51.924Z,63.23
2022-11-09T01:13:49.499Z,63.00
2022-11-09T01:18:47.378Z,62.93
2022-11-09T01:23:46.326Z,62.98
2022-11-09T01:28:43.839Z,62.96
2022-11-09T01:33:41.140Z,63.41
2022-11-09T01:38:40.439Z,63.37
2022-11-09T01:43:39.213Z,63.02
2022-11-09T01:48:41.829Z,63.25
2022-11-09T01:53:43.601Z,63.07
2022-11-09T01:58:47.454Z,63.16
2022-11-09T02:03:50.967Z,63.40
2022-11-09T02:08:53.027Z,63.59
2022-11-09T02:13:55.535Z,63.28
2022-11-09T02:18:54.656Z,63.70
2022-11-09T02:23:55.269Z,63.99
2022-11-09T02:28:56.313Z,63.91
2022-11-09T02:33:54.800Z,63.90
2022-11-09T02:38:55.436Z,63.58
2022-11-09T02:43:55.111Z,63.76
2022-11-09T02:48:52.532Z,63.72
2022-11-09T02:53:49.609Z,63.81
2022-11-09T02:58:47.740Z,63.77
2022-11-09T03:03:45.496Z,63.62
2022-11-09T03:08:43.193Z,63.37
2022-11-09T03:13:41.010Z,63.56
2022-11-09T03:18:40.032Z,63.82
2022-11-09T03:23:38.966Z,63.75
2022-11-09T03:28:37.310Z,63.66
2022-11-09T03:33:34.807Z,63.49
2022-11-09T03:38:32.996Z,63.65
2022-11-09T03:43:31.289Z,63.86
2022-11-09T03:48:28.553Z,63.57
2022-11-09T03:53:26.958Z,64.42
2022-11-09T03:58:25.042Z,64.42
2022-11-09T04:03:22.652Z,64.17
2022-11-09T04:08:23.795Z,64.44
2022-11-09T04:13:21.698Z,64.57
2022-11-09T04:18:20.877Z,65.06
2022-11-09T04:23:18.301Z,65.11
2022-11-09T04:28:15.602Z,64.84
2022-11-09T04:33:12.675Z,64.87
2022-11-09T04:38:13.389Z,64.54
2022-11-09T04:43:13.871Z,64.42
2022-11-09T04:48:11.625Z,64.62
2022-11-09T04:53:11.695Z,64.53
2022-11-09T04:58:09.968Z,64.59
2022-11-09T05:03:09.635Z,64.23
2022-11-09T05:08:07.137Z,64.65
2022-11-09T05:13:06.981Z,64.86
2022-11-09T05:18:05.347Z,64.44
2022-11-09T05:23:20.826Z,64.30
2022-11-09T05:28:20.293Z,64.44
2022-11-09T05:33:17.842Z,64.92
2022-11-09T05:38:15.337Z,64.76
2022-11-09T05:43:12.774Z,64.67
2022-11-09T05:48:11.758Z,64.73
2022-11-09T05:53:11.423Z,64.70
2022-11-09T05:58:09.088Z,66.70
2022-11-09T06:03:08.668Z,68.77
2022-11-09T06:08:10.131Z,68.94
2022-11-09T06:13:08.668Z,70.05
2022-11-09T06:18:06.023Z,70.96
2022-11-09T06:23:04.337Z,70.06
2022-11-09T06:28:05.714Z,69.65
2022-11-09T06:33:03.846Z,69.80
2022-11-09T06:38:01.249Z,69.52
2022-11-09T06:42:59.107Z,69.62
2022-11-09T06:47:57.804Z,69.51
2022-11-09T06:52:57.833Z,68.45
2022-11-09T06:57:59.000Z,68.09
2022-11-09T07:02:58.076Z,67.91
2022-11-09T07:07:55.531Z,67.79
2022-11-09T07:12:53.208Z,66.64
2022-11-09T07:17:50.403Z,66.17
2022-11-09T07:22:50.712Z,65.71
2022-11-09T07:27:48.482Z,65.44
2022-11-09T07:33:08.135Z,64.96
2022-11-09T07:38:04.323Z,62.89
2022-11-09T07:43:02.283Z,62.53
2022-11-09T07:48:01.328Z,63.32
2022-11-09T07:52:59.924Z,64.21
2022-11-09T07:57:59.284Z,64.98
2022-11-09T08:02:57.038Z,65.05
2022-11-09T08:07:58.030Z,65.34
2022-11-09T08:12:56.331Z,65.14
2022-11-09T08:17:55.115Z,65.87
2022-11-09T08:22:52.379Z,66.24
2022-11-09T08:27:49.463Z,66.09
2022-11-09T08:32:47.364Z,66.14
2022-11-09T08:37:50.332Z,65.98
2022-11-09T08:42:48.566Z,65.67
2022-11-09T08:47:46.804Z,65.44
2022-11-09T08:52:45.098Z,65.61
2022-11-09T08:57:42.500Z,64.85
2022-11-09T09:02:40.534Z,64.44
2022-11-09T09:07:37.886Z,63.69
2022-11-09T09:12:36.597Z,63.71
2022-11-09T09:17:34.987Z,63.51
2022-11-09T09:22:33.317Z,63.52
2022-11-09T09:27:32.241Z,62.10
2022-11-09T09:32:31.191Z,61.46
2022-11-09T09:37:29.276Z,60.83
2022-11-09T09:42:32.573Z,60.75
2022-11-09T09:47:55.297Z,60.20
2022-11-09T09:53:22.627Z,59.67
2022-11-09T09:58:25.708Z,59.30
2022-11-09T10:03:23.654Z,59.08
2022-11-09T10:08:28.665Z,58.74
2022-11-09T10:13:40.946Z,58.84
2022-11-09T10:18:57.460Z,58.46
2022-11-09T10:24:12.207Z,57.79
2022-11-09T10:29:21.016Z,57.88
2022-11-09T10:34:21.487Z,57.97
2022-11-09T10:39:21.609Z,57.53
2022-11-09T10:44:37.043Z,57.49
2022-11-09T10:50:22.537Z,57.42
2022-11-09T10:55:38.491Z,56.60
2022-11-09T11:00:58.773Z,55.73
2022-11-09T11:06:17.894Z,55.67
2022-11-09T11:11:37.110Z,55.25
2022-11-09T11:16:53.824Z,54.20
2022-11-09T11:22:22.467Z,53.72
2022-11-09T11:27:46.749Z,52.95
2022-11-09T11:33:21.071Z,53.02
2022-11-09T11:38:42.090Z,52.07
2022-11-09T11:44:03.844Z,52.49
2022-11-09T11:49:55.924Z,51.19
2022-11-09T11:56:05.770Z,51.01
2022-11-09T12:01:44.044Z,50.56
2022-11-09T12:07:31.536Z,50.94
2022-11-09T12:13:01.322Z,51.48
2022-11-09T12:18:34.165Z,50.75
2022-11-09T12:24:08.862Z,51.44
2022-11-09T12:29:33.827Z,50.90
2022-11-09T12:34:57.746Z,51.22
2022-11-09T12:40:22.434Z,50.59
2022-11-09T12:45:40.485Z,50.74
2022-11-09T12:50:57.775Z,50.90
2022-11-09T12:56:20.396Z,50.88
2022-11-09T13:01:54.357Z,51.10
2022-11-09T13:07:46.467Z,51.29
2022-11-09T13:13:05.098Z,51.47
2022-11-09T13:18:26.888Z,51.49
2022-11-09T13:29:25.681Z,51.76
2022-11-09T13:34:50.403Z,51.76
2022-11-09T13:40:39.424Z,52.04
2022-11-09T13:45:57.578Z,52.18
2022-11-09T13:51:17.172Z,52.56
2022-11-09T13:56:36.600Z,52.62
2022-11-09T14:01:53.919Z,52.87
2022-11-09T14:07:22.280Z,53.24
2022-11-09T14:12:45.727Z,53.33
2022-11-09T14:18:13.876Z,53.70
2022-11-09T14:23:34.689Z,53.86
2022-11-09T14:28:50.804Z,54.25
2022-11-09T14:34:07.229Z,54.62
2022-11-09T14:39:31.764Z,54.99
2022-11-09T14:44:48.321Z,55.54
2022-11-09T14:50:05.238Z,55.59
2022-11-09T14:55:29.483Z,56.15
2022-11-09T15:00:47.228Z,56.38
2022-11-09T15:06:08.150Z,56.73
2022-11-09T15:11:33.092Z,57.42
2022-11-09T15:16:50.122Z,57.79
2022-11-09T15:22:06.391Z,58.18
2022-11-09T15:27:35.331Z,58.25
2022-11-09T15:32:53.688Z,58.40
2022-11-09T15:38:32.666Z,58.53
2022-11-09T15:43:49.553Z,58.61
2022-11-09T15:49:17.651Z,59.03
2022-11-09T15:54:40.443Z,58.75
2022-11-09T16:00:02.017Z,58.15
2022-11-09T16:05:18.212Z,57.78
2022-11-09T16:10:37.052Z,57.58
2022-11-09T16:16:01.053Z,57.56
2022-11-09T16:21:17.877Z,57.60
2022-11-09T16:26:34.190Z,57.84
2022-11-09T16:31:56.342Z,57.79
2022-11-09T16:37:11.981Z,57.84
2022-11-09T16:42:28.304Z,57.79
2022-11-09T16:47:49.376Z,57.92
2022-11-09T16:53:07.436Z,58.03
2022-11-09T16:58:23.810Z,58.13
2022-11-09T17:03:42.831Z,58.49
2022-11-09T17:08:58.429Z,58.65
2022-11-09T17:14:18.435Z,58.97
2022-11-09T17:19:36.307Z,59.29
2022-11-09T17:24:53.946Z,59.56
2022-11-09T17:30:17.461Z,60.08
2022-11-09T17:35:36.187Z,60.30
2022-11-09T17:41:01.819Z,60.71
2022-11-09T17:46:21.831Z,60.94
2022-11-09T17:51:41.523Z,61.23
2022-11-09T17:57:00.937Z,62.14
2022-11-09T18:02:18.168Z,62.61
2022-11-09T18:07:37.567Z,62.18
2022-11-09T18:12:53.573Z,61.93
2022-11-09T18:18:09.150Z,62.09
2022-11-09T18:23:29.139Z,61.98
2022-11-09T18:28:46.481Z,61.80
2022-11-09T18:34:01.926Z,62.01
2022-11-09T18:39:28.003Z,62.23
2022-11-09T18:44:46.178Z,61.84
2022-11-09T18:50:07.447Z,62.14
2022-11-09T18:55:32.037Z,62.37
2022-11-09T19:00:56.915Z,62.76
2022-11-09T19:06:22.768Z,62.72
2022-11-09T19:11:46.535Z,63.05
2022-11-09T19:17:03.674Z,63.30
2022-11-09T19:22:21.967Z,63.23
2022-11-09T19:27:41.529Z,63.41
2022-11-09T19:32:58.244Z,63.49
2022-11-09T19:38:15.799Z,63.69
2022-11-09T19:43:32.407Z,63.87
2022-11-09T19:48:48.558Z,63.99
2022-11-09T19:54:05.874Z,64.06
2022-11-09T19:59:25.811Z,63.90
2022-11-09T20:04:42.888Z,63.59
2022-11-09T20:10:02.844Z,63.67
2022-11-09T20:15:19.674Z,63.77
2022-11-09T20:20:35.971Z,63.71
2022-11-09T20:25:53.126Z,63.52
2022-11-09T20:31:10.969Z,63.97
2022-11-09T20:36:26.832Z,63.47
2022-11-09T20:41:42.503Z,63.40
2022-11-09T20:46:58.642Z,63.37
2022-11-09T20:52:14.431Z,63.55
2022-11-09T20:57:30.252Z,63.48
2022-11-09T21:02:46.459Z,63.45
2022-11-09T21:08:02.100Z,63.39
2022-11-09T21:14:06.704Z,63.41
2022-11-09T21:19:25.210Z,63.82
2022-11-09T21:25:01.654Z,64.04
2022-11-09T21:30:18.921Z,63.95
2022-11-09T21:35:36.848Z,64.09
2022-11-09T21:41:02.903Z,64.17
2022-11-09T21:46:21.770Z,63.99
2022-11-09T21:51:39.463Z,64.00
2022-11-09T21:56:55.417Z,64.23
2022-11-09T22:02:12.450Z,64.20
2022-11-09T22:07:28.871Z,64.11
2022-11-09T22:13:02.942Z,64.46
2022-11-09T22:18:33.120Z,64.26
2022-11-09T22:23:49.868Z,64.39
2022-11-09T22:29:05.843Z,64.14
2022-11-09T22:34:28.531Z,64.33
2022-11-09T22:39:47.711Z,64.27
2022-11-09T22:45:03.735Z,64.20
2022-11-09T22:50:19.295Z,64.49
2022-11-09T22:55:35.843Z,64.06
2022-11-09T23:00:52.683Z,64.12
2022-11-09T23:06:10.905Z,64.39
2022-11-09T23:11:27.081Z,64.69
2022-11-09T23:16:42.774Z,64.66
2022-11-09T23:21:58.281Z,64.73
2022-11-09T23:27:14.577Z,64.57
2022-11-09T23:32:29.498Z,64.59
2022-11-09T23:37:45.238Z,64.60
2022-11-09T23:43:02.316Z,64.78
2022-11-09T23:48:19.355Z,64.33
2022-11-09T23:53:36.331Z,64.42
2022-11-09T23:58:52.808Z,64.14
